createdAt,value
2023-04-05T00:00:13.333Z,9.719339
2023-04-05T00:01:13.369Z,9.719336
2023-04-05T00:02:13.368Z,9.719367
2023-04-05T00:03:13.358Z,9.719370
2023-04-05T00:04:13.425Z,9.719260
2023-04-05T00:05:14.345Z,9.719281
2023-04-05T00:06:13.429Z,9.719234
2023-04-05T00:07:13.292Z,9.719303
2023-04-05T00:08:13.330Z,9.719272
2023-04-05T00:09:13.302Z,9.719274
2023-04-05T00:10:13.275Z,9.719288
2023-04-05T00:11:13.242Z,9.719285
2023-04-05T00:12:13.283Z,9.719325
2023-04-05T00:13:13.216Z,9.719354
2023-04-05T00:14:13.228Z,9.719357
2023-04-05T00:15:13.210Z,9.719274
2023-04-05T00:16:13.285Z,9.719076
2023-04-05T00:17:13.186Z,9.719150
2023-04-05T00:18:13.206Z,9.719228
2023-04-05T00:19:13.230Z,9.719208
2023-04-05T00:20:13.190Z,9.719177
2023-04-05T00:21:13.151Z,9.719169
2023-04-05T00:22:13.158Z,9.719226
2023-04-05T00:23:13.157Z,9.719080
2023-04-05T00:24:13.131Z,9.719131
2023-04-05T00:25:13.171Z,9.719192
2023-04-05T00:26:13.131Z,9.719112
2023-04-05T00:27:13.116Z,9.719244
2023-04-05T00:28:13.107Z,9.719114
2023-04-05T00:29:13.128Z,9.719170
2023-04-05T00:30:13.057Z,9.719205
2023-04-05T00:31:13.088Z,9.719181
2023-04-05T00:32:13.150Z,9.719212
2023-04-05T00:33:13.042Z,9.719032
2023-04-05T00:34:13.059Z,9.719171
2023-04-05T00:35:13.032Z,9.719325
2023-04-05T00:36:13.197Z,9.719320
2023-04-05T00:37:13.026Z,9.719327
2023-04-05T00:38:13.036Z,9.719390
2023-04-05T00:39:13.012Z,9.719306
2023-04-05T00:40:13.007Z,9.719254
2023-04-05T00:41:12.959Z,9.719241
2023-04-05T00:42:12.969Z,9.719295
2023-04-05T00:43:12.964Z,9.719352
2023-04-05T00:44:12.964Z,9.719228
2023-04-05T00:45:12.982Z,9.719271
2023-04-05T00:46:13.053Z,9.719244
2023-04-05T00:47:12.924Z,9.719261
2023-04-05T00:48:12.904Z,9.719293
2023-04-05T00:49:12.918Z,9.719348
2023-04-05T00:50:12.922Z,9.719254
2023-04-05T00:51:13.893Z,9.719204
2023-04-05T00:52:12.876Z,9.719244
2023-04-05T00:53:12.860Z,9.719199
2023-04-05T00:54:12.855Z,9.719225
2023-04-05T00:55:12.898Z,9.719176
2023-04-05T00:56:12.826Z,9.719130
2023-04-05T00:57:12.853Z,9.719236
2023-04-05T00:58:12.790Z,9.719233
2023-04-05T00:59:12.845Z,9.719194
2023-04-05T01:00:12.837Z,9.719239
2023-04-05T01:01:12.807Z,9.719257
2023-04-05T01:02:12.800Z,9.719253
2023-04-05T01:03:12.763Z,9.719128
2023-04-05T01:04:12.831Z,9.719244
2023-04-05T01:05:12.748Z,9.719343
2023-04-05T01:06:12.741Z,9.719256
2023-04-05T01:07:12.729Z,9.719238
2023-04-05T01:08:12.748Z,9.719213
2023-04-05T01:09:12.718Z,9.719363
2023-04-05T01:10:12.704Z,9.719435
2023-04-05T01:11:12.694Z,9.719216
2023-04-05T01:12:12.710Z,9.719266
2023-04-05T01:13:12.718Z,9.719075
2023-04-05T01:14:12.707Z,9.719331
2023-04-05T01:15:12.632Z,9.719345
2023-04-05T01:16:12.673Z,9.719153
2023-04-05T01:17:12.698Z,9.719303
2023-04-05T01:18:12.695Z,9.719298
2023-04-05T01:19:12.634Z,9.719462
2023-04-05T01:20:12.597Z,9.719458
2023-04-05T01:21:12.612Z,9.719291
2023-04-05T01:22:12.594Z,9.719335
2023-04-05T01:23:12.601Z,9.719129
2023-04-05T01:24:12.573Z,9.719311
2023-04-05T01:25:12.566Z,9.719134
2023-04-05T01:26:12.568Z,9.719152
2023-04-05T01:27:12.523Z,9.719180
2023-04-05T01:28:12.540Z,9.719221
2023-04-05T01:29:12.537Z,9.719159
2023-04-05T01:30:12.506Z,9.719021
2023-04-05T01:31:12.538Z,9.718858
2023-04-05T01:32:12.495Z,9.719054
2023-04-05T01:33:12.625Z,9.719069
2023-04-05T01:34:12.474Z,9.719214
2023-04-05T01:35:12.478Z,9.719049
2023-04-05T01:36:12.462Z,9.718969
2023-04-05T01:37:12.434Z,9.719107
2023-04-05T01:38:12.431Z,9.719185
2023-04-05T01:39:12.441Z,9.719013
2023-04-05T01:40:12.441Z,9.719071
2023-04-05T01:41:12.397Z,9.719077
2023-04-05T01:42:12.421Z,9.719179
2023-04-05T01:43:13.411Z,9.719189
2023-04-05T01:44:12.382Z,9.719172
2023-04-05T01:45:12.387Z,9.718911
2023-04-05T01:46:12.384Z,9.718863
2023-04-05T01:47:12.332Z,9.719133
2023-04-05T01:48:12.377Z,9.719200
2023-04-05T01:49:12.306Z,9.719172
2023-04-05T01:50:12.318Z,9.719253
2023-04-05T01:51:12.319Z,9.719150
2023-04-05T01:52:12.299Z,9.719372
2023-04-05T01:53:12.393Z,9.719187
2023-04-05T01:54:12.279Z,9.719262
2023-04-05T01:55:12.284Z,9.719342
2023-04-05T01:56:12.266Z,9.719305
2023-04-05T01:57:12.289Z,9.719243
2023-04-05T01:58:12.258Z,9.719285
2023-04-05T01:59:12.279Z,9.719267
2023-04-05T02:00:12.234Z,9.719286
2023-04-05T02:01:12.323Z,9.719296
2023-04-05T02:02:12.219Z,9.719216
2023-04-05T02:03:12.289Z,9.718991
2023-04-05T02:04:12.202Z,9.718966
2023-04-05T02:05:12.183Z,9.718950
2023-04-05T02:06:12.216Z,9.719438
2023-04-05T02:07:12.151Z,9.719220
2023-04-05T02:08:12.155Z,9.719029
2023-04-05T02:09:12.143Z,9.719173
2023-04-05T02:10:12.105Z,9.719385
2023-04-05T02:11:12.107Z,9.719410
2023-04-05T02:12:12.104Z,9.719072
2023-04-05T02:13:12.087Z,9.718750
2023-04-05T02:14:12.065Z,9.719171
2023-04-05T02:15:12.069Z,9.719049
2023-04-05T02:16:12.108Z,9.718837
2023-04-05T02:17:12.060Z,9.718639
2023-04-05T02:18:12.126Z,9.718587
2023-04-05T02:19:12.031Z,9.718823
2023-04-05T02:20:12.048Z,9.718846
2023-04-05T02:21:12.005Z,9.718805
2023-04-05T02:22:44.967Z,9.718802
2023-04-05T02:23:11.991Z,9.719036
2023-04-05T02:24:11.974Z,9.718940
2023-04-05T02:25:11.978Z,9.718906
2023-04-05T02:26:11.968Z,9.718984
2023-04-05T02:27:11.965Z,9.719028
2023-04-05T02:28:12.078Z,9.718989
2023-04-05T02:29:11.917Z,9.718895
2023-04-05T02:30:11.916Z,9.719000
2023-04-05T02:31:11.918Z,9.718912
2023-04-05T02:32:43.829Z,9.719103
2023-04-05T02:33:11.889Z,9.719057
2023-04-05T02:34:11.885Z,9.718886
2023-04-05T02:35:11.874Z,9.719176
2023-04-05T02:36:11.849Z,9.719228
2023-04-05T02:37:11.872Z,9.719180
2023-04-05T02:38:11.920Z,9.719162
2023-04-05T02:39:11.850Z,9.719203
2023-04-05T02:40:12.835Z,9.719218
2023-04-05T02:41:11.827Z,9.719206
2023-04-05T02:42:11.831Z,9.719123
2023-04-05T02:43:11.793Z,9.719214
2023-04-05T02:44:11.845Z,9.719167
2023-04-05T02:45:11.761Z,9.719314
2023-04-05T02:46:11.804Z,9.719347
2023-04-05T02:47:11.808Z,9.719327
2023-04-05T02:48:11.769Z,9.719219
2023-04-05T02:49:11.740Z,9.719275
2023-04-05T02:50:11.844Z,9.719088
2023-04-05T02:51:11.722Z,9.719191
2023-04-05T02:52:11.723Z,9.719199
2023-04-05T02:53:11.683Z,9.719182
2023-04-05T02:54:11.715Z,9.719398
2023-04-05T02:55:11.726Z,9.719341
2023-04-05T02:56:11.668Z,9.719374
2023-04-05T02:57:11.763Z,9.719420
2023-04-05T02:58:11.639Z,9.719385
2023-04-05T02:59:11.697Z,9.719269
2023-04-05T03:00:11.620Z,9.719147
2023-04-05T03:01:11.723Z,9.719152
2023-04-05T03:02:11.648Z,9.719122
2023-04-05T03:03:11.723Z,9.719290
2023-04-05T03:04:11.606Z,9.719231
2023-04-05T03:05:11.608Z,9.719280
2023-04-05T03:06:11.578Z,9.719409
2023-04-05T03:07:11.547Z,9.719225
2023-04-05T03:08:11.589Z,9.719239
2023-04-05T03:09:11.556Z,9.719398
2023-04-05T03:10:11.570Z,9.719514
2023-04-05T03:11:11.525Z,9.719007
2023-04-05T03:12:11.533Z,9.719098
2023-04-05T03:13:11.488Z,9.719095
2023-04-05T03:14:11.529Z,9.719334
2023-04-05T03:15:11.515Z,9.719261
2023-04-05T03:16:11.500Z,9.719313
2023-04-05T03:17:11.480Z,9.719241
2023-04-05T03:18:11.480Z,9.719298
2023-04-05T03:19:11.468Z,9.719105
2023-04-05T03:20:11.444Z,9.719067
2023-04-05T03:21:11.442Z,9.719273
2023-04-05T03:22:11.532Z,9.719217
2023-04-05T03:23:11.427Z,9.719272
2023-04-05T03:24:11.396Z,9.719246
2023-04-05T03:25:11.401Z,9.719252
2023-04-05T03:26:11.397Z,9.719178
2023-04-05T03:27:11.363Z,9.719108
2023-04-05T03:28:11.418Z,9.719059
2023-04-05T03:29:11.348Z,9.719252
2023-04-05T03:30:11.351Z,9.719256
2023-04-05T03:31:11.348Z,9.719296
2023-04-05T03:32:11.338Z,9.719331
2023-04-05T03:33:11.402Z,9.719305
2023-04-05T03:34:12.290Z,9.719311
2023-04-05T03:35:11.295Z,9.719245
2023-04-05T03:36:11.329Z,9.719198
2023-04-05T03:37:11.295Z,9.719159
2023-04-05T03:38:11.288Z,9.719186
2023-04-05T03:39:11.265Z,9.719150
2023-04-05T03:40:11.289Z,9.719157
2023-04-05T03:41:11.255Z,9.719156
2023-04-05T03:42:11.204Z,9.719217
2023-04-05T03:43:11.404Z,9.719342
2023-04-05T03:44:11.279Z,9.719281
2023-04-05T03:45:11.225Z,9.719174
2023-04-05T03:46:11.229Z,9.719249
2023-04-05T03:47:11.167Z,9.719263
2023-04-05T03:48:11.221Z,9.719180
2023-04-05T03:49:11.210Z,9.719227
2023-04-05T03:50:11.183Z,9.719188
2023-04-05T03:51:11.152Z,9.719192
2023-04-05T03:52:11.145Z,9.719176
2023-04-05T03:53:11.139Z,9.719088
2023-04-05T03:54:11.118Z,9.719144
2023-04-05T03:55:11.164Z,9.719213
2023-04-05T03:56:11.091Z,9.719247
2023-04-05T03:57:11.095Z,9.719169
2023-04-05T03:58:11.070Z,9.719133
2023-04-05T03:59:11.112Z,9.719184
2023-04-05T04:00:11.062Z,9.719217
2023-04-05T04:01:11.077Z,9.719212
2023-04-05T04:02:11.100Z,9.719151
2023-04-05T04:03:11.095Z,9.719256
2023-04-05T04:04:11.017Z,9.719220
2023-04-05T04:05:11.025Z,9.719257
2023-04-05T04:06:11.073Z,9.719229
2023-04-05T04:07:10.999Z,9.719220
2023-04-05T04:08:11.030Z,9.719234
2023-04-05T04:09:10.985Z,9.719213
2023-04-05T04:10:10.935Z,9.719133
2023-04-05T04:11:11.932Z,9.719239
2023-04-05T04:12:10.917Z,9.719210
2023-04-05T04:13:10.910Z,9.719193
2023-04-05T04:14:10.931Z,9.719221
2023-04-05T04:15:10.890Z,9.719230
2023-04-05T04:16:11.051Z,9.719276
2023-04-05T04:17:10.912Z,9.719244
2023-04-05T04:18:10.903Z,9.719241
2023-04-05T04:19:10.874Z,9.719246
2023-04-05T04:20:10.882Z,9.719119
2023-04-05T04:21:10.847Z,9.719182
2023-04-05T04:22:10.847Z,9.719151
2023-04-05T04:23:10.835Z,9.719352
2023-04-05T04:24:10.845Z,9.719223
2023-04-05T04:25:10.968Z,9.719425
2023-04-05T04:26:10.816Z,9.719259
2023-04-05T04:27:10.824Z,9.719128
2023-04-05T04:28:10.802Z,9.719154
2023-04-05T04:29:10.806Z,9.719278
2023-04-05T04:30:10.859Z,9.719293
2023-04-05T04:31:10.762Z,9.719113
2023-04-05T04:32:10.910Z,9.719095
2023-04-05T04:33:10.770Z,9.719124
2023-04-05T04:34:10.758Z,9.719167
2023-04-05T04:35:10.721Z,9.719172
2023-04-05T04:36:11.719Z,9.719266
2023-04-05T04:37:10.698Z,9.719083
2023-04-05T04:38:10.699Z,9.719198
2023-04-05T04:39:10.729Z,9.719390
2023-04-05T04:40:10.689Z,9.719277
2023-04-05T04:41:10.652Z,9.719296
2023-04-05T04:42:10.668Z,9.719210
2023-04-05T04:43:10.644Z,9.719212
2023-04-05T04:44:10.680Z,9.719252
2023-04-05T04:45:10.641Z,9.719256
2023-04-05T04:46:10.685Z,9.719311
2023-04-05T04:47:10.594Z,9.719423
2023-04-05T04:48:10.625Z,9.719847
2023-04-05T04:49:10.594Z,9.719444
2023-04-05T04:50:10.578Z,9.719409
2023-04-05T04:51:10.589Z,9.719485
2023-04-05T04:52:10.570Z,9.719330
2023-04-05T04:53:10.578Z,9.719383
2023-04-05T04:54:10.583Z,9.719290
2023-04-05T04:55:10.544Z,9.719432
2023-04-05T04:56:10.554Z,9.719349
2023-04-05T04:57:10.550Z,9.719341
2023-04-05T04:58:10.564Z,9.719441
2023-04-05T04:59:10.585Z,9.719404
2023-04-05T05:00:10.478Z,9.719428
2023-04-05T05:01:10.566Z,9.719431
2023-04-05T05:02:10.496Z,9.719462
2023-04-05T05:03:10.482Z,9.719281
2023-04-05T05:04:10.572Z,9.719283
2023-04-05T05:05:10.500Z,9.719391
2023-04-05T05:06:10.449Z,9.719238
2023-04-05T05:07:10.441Z,9.719148
2023-04-05T05:08:10.460Z,9.719440
2023-04-05T05:09:10.414Z,9.719419
2023-04-05T05:10:10.401Z,9.719197
2023-04-05T05:11:10.405Z,9.719049
2023-04-05T05:12:10.383Z,9.718822
2023-04-05T05:13:10.395Z,9.718906
2023-04-05T05:14:10.389Z,9.719056
2023-04-05T05:15:10.329Z,9.719205
2023-04-05T05:16:10.340Z,9.718958
2023-04-05T05:17:10.314Z,9.719101
2023-04-05T05:18:10.459Z,9.719126
2023-04-05T05:19:10.327Z,9.719136
2023-04-05T05:20:10.308Z,9.719147
2023-04-05T05:21:10.314Z,9.719057
2023-04-05T05:22:10.297Z,9.719157
2023-04-05T05:23:10.287Z,9.719106
2023-04-05T05:24:10.274Z,9.719208
2023-04-05T05:25:10.254Z,9.719223
2023-04-05T05:26:10.220Z,9.719089
2023-04-05T05:27:10.228Z,9.719156
2023-04-05T05:28:10.238Z,9.719217
2023-04-05T05:29:10.186Z,9.719196
2023-04-05T05:30:10.184Z,9.719202
2023-04-05T05:31:10.193Z,9.719250
2023-04-05T05:32:10.194Z,9.719093
2023-04-05T05:33:10.232Z,9.719438
2023-04-05T05:34:10.162Z,9.719275
2023-04-05T05:35:10.163Z,9.719063
2023-04-05T05:36:10.136Z,9.718994
2023-04-05T05:37:10.113Z,9.719259
2023-04-05T05:38:11.955Z,9.719150
2023-04-05T05:39:11.181Z,9.719159
2023-04-05T05:40:10.123Z,9.719223
2023-04-05T05:41:10.126Z,9.719121
2023-04-05T05:42:10.122Z,9.718883
2023-04-05T05:43:10.114Z,9.718801
2023-04-05T05:44:11.094Z,9.719152
2023-04-05T05:45:10.235Z,9.719164
2023-04-05T05:46:10.095Z,9.719097
2023-04-05T05:47:10.040Z,9.719038
2023-04-05T05:48:10.034Z,9.718928
2023-04-05T05:49:10.005Z,9.719151
2023-04-05T05:50:10.087Z,9.719418
2023-04-05T05:51:09.991Z,9.719193
2023-04-05T05:52:10.020Z,9.719046
2023-04-05T05:53:09.989Z,9.719202
2023-04-05T05:54:10.001Z,9.718650
2023-04-05T05:55:09.948Z,9.718899
2023-04-05T05:56:09.997Z,9.719034
2023-04-05T05:57:09.917Z,9.719304
2023-04-05T05:58:09.915Z,9.719477
2023-04-05T05:59:09.913Z,9.719054
2023-04-05T06:00:09.947Z,9.719186
2023-04-05T06:01:09.910Z,9.719522
2023-04-05T06:02:09.913Z,9.719392
2023-04-05T06:03:09.970Z,9.719476
2023-04-05T06:04:09.953Z,9.719272
2023-04-05T06:05:09.865Z,9.719267
2023-04-05T06:06:09.860Z,9.719311
2023-04-05T06:07:09.836Z,9.719183
2023-04-05T06:08:09.810Z,9.719147
2023-04-05T06:09:09.897Z,9.719290
2023-04-05T06:10:09.804Z,9.719337
2023-04-05T06:11:09.823Z,9.719307
2023-04-05T06:12:09.779Z,9.719376
2023-04-05T06:13:09.784Z,9.719388
2023-04-05T06:14:09.770Z,9.719377
2023-04-05T06:15:09.783Z,9.719324
2023-04-05T06:16:09.779Z,9.719319
2023-04-05T06:17:09.760Z,9.719311
2023-04-05T06:18:09.747Z,9.719352
2023-04-05T06:19:10.804Z,9.719257
2023-04-05T06:20:09.725Z,9.719195
2023-04-05T06:21:09.711Z,9.719281
2023-04-05T06:22:09.726Z,9.719259
2023-04-05T06:23:09.675Z,9.719324
2023-04-05T06:24:09.704Z,9.719380
2023-04-05T06:25:09.669Z,9.719376
2023-04-05T06:26:09.714Z,9.719317
2023-04-05T06:27:09.646Z,9.719269
2023-04-05T06:28:09.661Z,9.719303
2023-04-05T06:29:09.668Z,9.719357
2023-04-05T06:30:09.605Z,9.719432
2023-04-05T06:31:11.468Z,9.719370
2023-04-05T06:32:09.621Z,9.719359
2023-04-05T06:33:09.670Z,9.719232
2023-04-05T06:34:09.729Z,9.719359
2023-04-05T06:35:09.602Z,9.719360
2023-04-05T06:36:09.571Z,9.719298
2023-04-05T06:37:09.547Z,9.719332
2023-04-05T06:38:09.569Z,9.719376
2023-04-05T06:39:09.532Z,9.719307
2023-04-05T06:40:09.537Z,9.719266
2023-04-05T06:41:09.537Z,9.719206
2023-04-05T06:42:09.508Z,9.719402
2023-04-05T06:43:09.478Z,9.719312
2023-04-05T06:44:09.482Z,9.719302
2023-04-05T06:45:09.488Z,9.719296
2023-04-05T06:46:09.541Z,9.719310
2023-04-05T06:47:09.444Z,9.719160
2023-04-05T06:48:09.475Z,9.719097
2023-04-05T06:49:09.415Z,9.719170
2023-04-05T06:50:09.425Z,9.719227
2023-04-05T06:51:09.450Z,9.719370
2023-04-05T06:52:09.419Z,9.719465
2023-04-05T06:53:09.398Z,9.719337
2023-04-05T06:54:09.396Z,9.719182
2023-04-05T06:55:09.398Z,9.719222
2023-04-05T06:56:09.363Z,9.719317
2023-04-05T06:57:09.368Z,9.719399
2023-04-05T06:58:09.362Z,9.719378
2023-04-05T06:59:09.374Z,9.719321
2023-04-05T07:00:09.352Z,9.719386
2023-04-05T07:01:09.357Z,9.719612
2023-04-05T07:02:09.365Z,9.719614
2023-04-05T07:03:09.351Z,9.719536
2023-04-05T07:04:09.319Z,9.719549
2023-04-05T07:05:09.280Z,9.719464
2023-04-05T07:06:09.292Z,9.719413
2023-04-05T07:07:09.295Z,9.719575
2023-04-05T07:08:09.288Z,9.719605
2023-04-05T07:09:09.287Z,9.719637
2023-04-05T07:10:09.276Z,9.719635
2023-04-05T07:11:09.358Z,9.719559
2023-04-05T07:12:09.268Z,9.719592
2023-04-05T07:13:09.230Z,9.719538
2023-04-05T07:14:09.186Z,9.719495
2023-04-05T07:15:09.182Z,9.719619
2023-04-05T07:16:09.233Z,9.719388
2023-04-05T07:17:09.161Z,9.719587
2023-04-05T07:18:09.239Z,9.719428
2023-04-05T07:19:09.161Z,9.719440
2023-04-05T07:20:09.137Z,9.719448
2023-04-05T07:21:09.136Z,9.719497
2023-04-05T07:22:09.149Z,9.719344
2023-04-05T07:23:09.131Z,9.719380
2023-04-05T07:24:09.087Z,9.719286
2023-04-05T07:25:09.106Z,9.719337
2023-04-05T07:26:09.079Z,9.719330
2023-04-05T07:27:09.090Z,9.719209
2023-04-05T07:28:09.069Z,9.719260
2023-04-05T07:29:09.078Z,9.719241
2023-04-05T07:30:09.028Z,9.719252
2023-04-05T07:31:09.018Z,9.719268
2023-04-05T07:32:09.073Z,9.719385
2023-04-05T07:33:09.047Z,9.719414
2023-04-05T07:34:09.010Z,9.719451
2023-04-05T07:35:09.001Z,9.719310
2023-04-05T07:36:09.033Z,9.719225
2023-04-05T07:37:08.952Z,9.719114
2023-04-05T07:38:08.940Z,9.719067
2023-04-05T07:39:08.972Z,9.719137
2023-04-05T07:40:08.973Z,9.719101
2023-04-05T07:41:08.943Z,9.719262
2023-04-05T07:42:08.926Z,9.719285
2023-04-05T07:43:08.909Z,9.719196
2023-04-05T07:44:08.899Z,9.719223
2023-04-05T07:45:08.922Z,9.719244
2023-04-05T07:46:08.950Z,9.719108
2023-04-05T07:47:08.873Z,9.718986
2023-04-05T07:48:08.922Z,9.718966
2023-04-05T07:49:08.877Z,9.719063
2023-04-05T07:50:08.879Z,9.719104
2023-04-05T07:51:08.842Z,9.719189
2023-04-05T07:52:08.806Z,9.719014
2023-04-05T07:53:08.806Z,9.719048
2023-04-05T07:54:08.816Z,9.719178
2023-04-05T07:55:08.800Z,9.719003
2023-04-05T07:56:08.753Z,9.719008
2023-04-05T07:57:09.791Z,9.719163
2023-04-05T07:58:08.779Z,9.719169
2023-04-05T07:59:08.778Z,9.719195
2023-04-05T08:00:08.753Z,9.719275
2023-04-05T08:01:08.758Z,9.719207
2023-04-05T08:02:14.436Z,9.719093
2023-04-05T08:03:09.826Z,9.719094
2023-04-05T08:04:08.800Z,9.719129
2023-04-05T08:05:08.736Z,9.719106
2023-04-05T08:06:08.690Z,9.719061
2023-04-05T08:07:08.688Z,9.719123
2023-04-05T08:08:08.656Z,9.719503
2023-04-05T08:09:08.686Z,9.719540
2023-04-05T08:10:08.636Z,9.719281
2023-04-05T08:11:08.669Z,9.719271
2023-04-05T08:12:08.637Z,9.719263
2023-04-05T08:13:08.612Z,9.719254
2023-04-05T08:14:08.680Z,9.719148
2023-04-05T08:15:08.632Z,9.719199
2023-04-05T08:16:08.605Z,9.719218
2023-04-05T08:17:08.573Z,9.719208
2023-04-05T08:18:08.677Z,9.719144
2023-04-05T08:19:08.553Z,9.719218
2023-04-05T08:20:08.613Z,9.719250
2023-04-05T08:21:08.544Z,9.719217
2023-04-05T08:22:40.466Z,9.719226
2023-04-05T08:23:08.544Z,9.719182
2023-04-05T08:24:08.526Z,9.719246
2023-04-05T08:25:08.521Z,9.719217
2023-04-05T08:26:08.528Z,9.719259
2023-04-05T08:27:09.493Z,9.719118
2023-04-05T08:28:08.468Z,9.719038
2023-04-05T08:29:08.486Z,9.719204
2023-04-05T08:30:08.465Z,9.719173
2023-04-05T08:31:08.449Z,9.719188
2023-04-05T08:32:08.564Z,9.719115
2023-04-05T08:33:08.498Z,9.719155
2023-04-05T08:34:08.443Z,9.719181
2023-04-05T08:35:08.406Z,9.719230
2023-04-05T08:36:08.550Z,9.719211
2023-04-05T08:37:08.385Z,9.719135
2023-04-05T08:38:08.393Z,9.719181
2023-04-05T08:39:08.386Z,9.719286
2023-04-05T08:40:08.350Z,9.719155
2023-04-05T08:41:08.350Z,9.719186
2023-04-05T08:42:08.386Z,9.719157
2023-04-05T08:43:08.335Z,9.719152
2023-04-05T08:44:08.343Z,9.719200
2023-04-05T08:45:08.314Z,9.719273
2023-04-05T08:46:08.368Z,9.719285
2023-04-05T08:47:08.326Z,9.719224
2023-04-05T08:48:08.335Z,9.719117
2023-04-05T08:49:08.577Z,9.719190
2023-04-05T08:50:08.386Z,9.719088
2023-04-05T08:51:08.272Z,9.719065
2023-04-05T08:52:08.259Z,9.719175
2023-04-05T08:53:08.234Z,9.719235
2023-04-05T08:54:08.246Z,9.719165
2023-04-05T08:55:08.241Z,9.719178
2023-04-05T08:56:08.193Z,9.719308
2023-04-05T08:57:08.194Z,9.719200
2023-04-05T08:58:08.183Z,9.719169
2023-04-05T08:59:08.416Z,9.719280
2023-04-05T09:00:08.252Z,9.719293
2023-04-05T09:01:08.191Z,9.719256
2023-04-05T09:02:08.205Z,9.719180
2023-04-05T09:03:08.275Z,9.719319
2023-04-05T09:04:08.185Z,9.719412
2023-04-05T09:05:08.205Z,9.719320
2023-04-05T09:06:08.128Z,9.719367
2023-04-05T09:07:08.102Z,9.719375
2023-04-05T09:08:08.134Z,9.719279
2023-04-05T09:09:08.145Z,9.719229
2023-04-05T09:10:08.124Z,9.719228
2023-04-05T09:11:08.187Z,9.719279
2023-04-05T09:12:08.069Z,9.719285
2023-04-05T09:13:08.039Z,9.719240
2023-04-05T09:14:08.077Z,9.719295
2023-04-05T09:15:08.064Z,9.719301
2023-04-05T09:16:08.051Z,9.719332
2023-04-05T09:17:08.044Z,9.719374
2023-04-05T09:18:18.984Z,9.719263
2023-04-05T09:19:08.989Z,9.719317
2023-04-05T09:20:08.007Z,9.719244
2023-04-05T09:21:08.028Z,9.719312
2023-04-05T09:22:07.974Z,9.719309
2023-04-05T09:23:07.960Z,9.719225
2023-04-05T09:24:07.970Z,9.719288
2023-04-05T09:25:07.931Z,9.719082
2023-04-05T09:26:07.942Z,9.719123
2023-04-05T09:27:07.922Z,9.719434
2023-04-05T09:28:07.893Z,9.719129
2023-04-05T09:29:07.886Z,9.719251
2023-04-05T09:30:07.908Z,9.719407
2023-04-05T09:31:07.924Z,9.719264
2023-04-05T09:32:07.886Z,9.719417
2023-04-05T09:33:07.919Z,9.719180
2023-04-05T09:34:07.855Z,9.719264
2023-04-05T09:35:07.815Z,9.719336
2023-04-05T09:36:07.878Z,9.719373
2023-04-05T09:37:07.882Z,9.719357
2023-04-05T09:38:07.821Z,9.719292
2023-04-05T09:39:08.070Z,9.719282
2023-04-05T09:40:07.804Z,9.719255
2023-04-05T09:41:07.778Z,9.719291
2023-04-05T09:42:07.796Z,9.719372
2023-04-05T09:43:07.749Z,9.719398
2023-04-05T09:44:07.776Z,9.719319
2023-04-05T09:45:07.771Z,9.719258
2023-04-05T09:46:07.873Z,9.719309
2023-04-05T09:47:07.735Z,9.719500
2023-04-05T09:48:07.824Z,9.719537
2023-04-05T09:49:07.748Z,9.719332
2023-04-05T09:50:07.741Z,9.719446
2023-04-05T09:51:12.480Z,9.719378
2023-04-05T09:52:08.721Z,9.719419
2023-04-05T09:53:07.719Z,9.719357
2023-04-05T09:54:07.682Z,9.719368
2023-04-05T09:55:07.655Z,9.719390
2023-04-05T09:56:07.648Z,9.719382
2023-04-05T09:57:07.608Z,9.719355
2023-04-05T09:58:07.636Z,9.719344
2023-04-05T09:59:07.637Z,9.719241
2023-04-05T10:00:07.617Z,9.719294
2023-04-05T10:01:16.719Z,9.719305
2023-04-05T10:02:08.668Z,9.719225
2023-04-05T10:03:07.779Z,9.719379
2023-04-05T10:04:07.574Z,9.719363
2023-04-05T10:05:07.518Z,9.719316
2023-04-05T10:06:07.555Z,9.719434
2023-04-05T10:07:07.625Z,9.719335
2023-04-05T10:08:07.518Z,9.719215
2023-04-05T10:09:07.532Z,9.719248
2023-04-05T10:10:07.494Z,9.719185
2023-04-05T10:11:07.547Z,9.719178
2023-04-05T10:12:07.545Z,9.719140
2023-04-05T10:13:07.468Z,9.719282
2023-04-05T10:14:07.528Z,9.719449
2023-04-05T10:15:07.462Z,9.719438
2023-04-05T10:16:07.525Z,9.719348
2023-04-05T10:17:07.439Z,9.719377
2023-04-05T10:18:07.456Z,9.719412
2023-04-05T10:19:07.385Z,9.719300
2023-04-05T10:20:07.385Z,9.719210
2023-04-05T10:21:07.416Z,9.719161
2023-04-05T10:22:07.400Z,9.719213
2023-04-05T10:23:07.389Z,9.719234
2023-04-05T10:24:07.395Z,9.719215
2023-04-05T10:25:07.340Z,9.719309
2023-04-05T10:26:07.318Z,9.719332
2023-04-05T10:27:07.319Z,9.719218
2023-04-05T10:28:07.411Z,9.719162
2023-04-05T10:29:07.347Z,9.719135
2023-04-05T10:30:07.306Z,9.719194
2023-04-05T10:31:07.311Z,9.719257
2023-04-05T10:32:07.463Z,9.719139
2023-04-05T10:33:07.382Z,9.719186
2023-04-05T10:34:07.347Z,9.719172
2023-04-05T10:35:07.276Z,9.719118
2023-04-05T10:36:07.343Z,9.719304
2023-04-05T10:37:07.271Z,9.719158
2023-04-05T10:38:07.240Z,9.719230
2023-04-05T10:39:07.272Z,9.719280
2023-04-05T10:40:07.203Z,9.719280
2023-04-05T10:41:07.216Z,9.719300
2023-04-05T10:42:07.169Z,9.719338
2023-04-05T10:43:07.185Z,9.719649
2023-04-05T10:44:22.537Z,9.719469
2023-04-05T10:45:08.218Z,9.719295
2023-04-05T10:46:07.180Z,9.719234
2023-04-05T10:47:07.139Z,9.719280
2023-04-05T10:48:07.132Z,9.719413
2023-04-05T10:49:07.121Z,9.719341
2023-04-05T10:50:07.128Z,9.719284
2023-04-05T10:51:07.073Z,9.719156
2023-04-05T10:52:07.113Z,9.719201
2023-04-05T10:53:07.113Z,9.719274
2023-04-05T10:54:07.077Z,9.719298
2023-04-05T10:55:07.083Z,9.719355
2023-04-05T10:56:07.044Z,9.719294
2023-04-05T10:57:09.117Z,9.719367
2023-04-05T10:58:07.063Z,9.719524
2023-04-05T10:59:08.053Z,9.719585
2023-04-05T11:00:07.037Z,9.719535
2023-04-05T11:01:07.079Z,9.719380
2023-04-05T11:02:07.041Z,9.719540
2023-04-05T11:03:07.028Z,9.719543
2023-04-05T11:04:07.039Z,9.719810
2023-04-05T11:05:07.023Z,9.719597
2023-04-05T11:06:06.951Z,9.719293
2023-04-05T11:07:07.921Z,9.719305
2023-04-05T11:08:06.936Z,9.719273
2023-04-05T11:09:06.916Z,9.719319
2023-04-05T11:10:06.944Z,9.719199
2023-04-05T11:11:06.911Z,9.719242
2023-04-05T11:12:06.925Z,9.719250
2023-04-05T11:13:06.873Z,9.719214
2023-04-05T11:14:06.873Z,9.719242
2023-04-05T11:15:06.871Z,9.719151
2023-04-05T11:16:06.886Z,9.719178
2023-04-05T11:17:06.915Z,9.719174
2023-04-05T11:18:06.869Z,9.719184
2023-04-05T11:19:06.894Z,9.719216
2023-04-05T11:20:06.851Z,9.719127
2023-04-05T11:21:06.862Z,9.719061
2023-04-05T11:22:06.841Z,9.719129
2023-04-05T11:23:06.878Z,9.719156
2023-04-05T11:24:06.830Z,9.719070
2023-04-05T11:25:06.774Z,9.719069
2023-04-05T11:26:06.787Z,9.719100
2023-04-05T11:27:06.751Z,9.719129
2023-04-05T11:28:06.732Z,9.719191
2023-04-05T11:29:06.762Z,9.719189
2023-04-05T11:30:06.738Z,9.719092
2023-04-05T11:31:06.731Z,9.719084
2023-04-05T11:32:06.693Z,9.719130
2023-04-05T11:33:06.725Z,9.719131
2023-04-05T11:34:06.761Z,9.719129
2023-04-05T11:35:06.687Z,9.719107
2023-04-05T11:36:06.704Z,9.719134
2023-04-05T11:37:06.667Z,9.719164
2023-04-05T11:38:06.662Z,9.719140
2023-04-05T11:39:06.665Z,9.719135
2023-04-05T11:40:06.876Z,9.719124
2023-04-05T11:41:07.628Z,9.719131
2023-04-05T11:42:06.649Z,9.719116
2023-04-05T11:43:06.599Z,9.719094
2023-04-05T11:44:06.594Z,9.719134